createdAt,value
2024-03-13T00:01:52.160Z,88.53
2024-03-13T00:06:55.919Z,88.57
2024-03-13T00:11:57.431Z,88.61
2024-03-13T00:16:59.006Z,88.60
2024-03-13T00:22:05.606Z,88.64
2024-03-13T00:27:07.290Z,88.62
2024-03-13T00:32:08.888Z,88.64
2024-03-13T00:37:11.145Z,88.65
2024-03-13T00:42:13.126Z,88.71
2024-03-13T00:47:20.249Z,88.77
2024-03-13T00:52:22.956Z,88.67
2024-03-13T00:57:25.132Z,88.64
2024-03-13T01:02:27.326Z,88.53
2024-03-13T01:07:28.953Z,88.50
2024-03-13T01:12:30.589Z,88.53
2024-03-13T01:17:32.958Z,88.57
2024-03-13T01:22:34.867Z,88.61
2024-03-13T01:27:36.987Z,88.59
2024-03-13T01:32:38.870Z,88.61
2024-03-13T01:37:59.244Z,88.72
2024-03-13T01:43:19.614Z,88.77
2024-03-13T01:48:39.994Z,88.82
2024-03-13T01:54:00.794Z,88.87
2024-03-13T01:59:20.649Z,88.98
2024-03-13T02:04:22.259Z,89.02
2024-03-13T02:09:25.108Z,88.89
2024-03-13T02:14:28.869Z,88.82
2024-03-13T02:19:32.315Z,88.78
2024-03-13T02:24:34.445Z,88.72
2024-03-13T02:29:37.150Z,88.78
2024-03-13T02:34:44.257Z,88.75
2024-03-13T02:39:45.993Z,88.70
2024-03-13T02:44:47.520Z,88.71
2024-03-13T02:49:48.996Z,88.75
2024-03-13T02:54:52.486Z,88.81
2024-03-13T02:59:54.070Z,88.83
2024-03-13T03:04:57.361Z,88.80
2024-03-13T03:10:00.471Z,88.78
2024-03-13T03:15:02.193Z,88.80
2024-03-13T03:20:06.889Z,88.89
2024-03-13T03:25:10.296Z,88.87
2024-03-13T03:30:12.602Z,88.89
2024-03-13T03:35:14.161Z,88.83
2024-03-13T03:40:18.828Z,88.81
2024-03-13T03:45:20.370Z,88.76
2024-03-13T03:50:21.961Z,88.71
2024-03-13T03:55:23.593Z,88.67
2024-03-13T04:00:25.198Z,88.72
2024-03-13T04:05:28.619Z,88.75
2024-03-13T04:10:30.272Z,88.71
2024-03-13T04:15:31.892Z,88.70
2024-03-13T04:20:34.132Z,88.71
2024-03-13T04:25:39.585Z,88.74
2024-03-13T04:30:41.296Z,88.71
2024-03-13T04:35:45.815Z,88.74
2024-03-13T04:40:47.351Z,88.74
2024-03-13T04:45:48.959Z,88.72
2024-03-13T04:50:50.475Z,88.70
2024-03-13T04:55:52.112Z,88.70
2024-03-13T05:00:53.681Z,88.70
2024-03-13T05:05:55.564Z,88.79
2024-03-13T05:10:57.239Z,88.85
2024-03-13T05:15:58.846Z,88.82
2024-03-13T05:21:01.355Z,88.82
2024-03-13T05:26:03.139Z,88.84
2024-03-13T05:31:04.737Z,88.84
2024-03-13T05:36:08.574Z,88.83
2024-03-13T05:41:10.198Z,88.78
2024-03-13T05:46:12.545Z,88.79
2024-03-13T05:51:14.116Z,88.79
2024-03-13T05:56:15.773Z,88.82
2024-03-13T06:01:23.347Z,88.99
2024-03-13T06:06:28.196Z,88.92
2024-03-13T06:11:29.776Z,88.78
2024-03-13T06:16:31.590Z,88.76
2024-03-13T06:21:33.162Z,88.75
2024-03-13T06:26:41.192Z,88.72
2024-03-13T06:31:44.098Z,88.72
2024-03-13T06:36:45.632Z,88.79
2024-03-13T06:41:48.384Z,88.79
2024-03-13T06:46:51.680Z,88.81
2024-03-13T06:51:53.280Z,88.81
2024-03-13T06:56:55.087Z,88.88
2024-03-13T07:01:56.783Z,88.94
2024-03-13T07:06:58.556Z,88.95
2024-03-13T07:12:00.224Z,88.96
2024-03-13T07:17:01.794Z,89.06
2024-03-13T07:22:04.084Z,89.21
2024-03-13T07:27:05.663Z,89.05
2024-03-13T07:32:07.369Z,88.89
2024-03-13T07:37:10.770Z,88.81
2024-03-13T07:42:12.374Z,88.89
2024-03-13T07:47:14.117Z,88.93
2024-03-13T07:52:16.414Z,88.93
2024-03-13T07:57:18.522Z,88.93
2024-03-13T08:02:20.188Z,88.82
2024-03-13T09:06:16.021Z,88.69
2024-03-13T09:11:18.466Z,88.71
2024-03-13T09:16:20.591Z,88.72
2024-03-13T09:21:22.168Z,88.67
2024-03-13T09:26:23.815Z,88.68
2024-03-13T09:31:25.451Z,88.68
2024-03-13T09:36:27.453Z,88.76
2024-03-13T09:41:29.483Z,88.70
2024-03-13T09:46:33.520Z,88.64
2024-03-13T09:51:37.064Z,88.68
2024-03-13T09:56:41.484Z,88.61
2024-03-13T10:01:49.857Z,88.47
2024-03-13T10:06:59.549Z,88.45
2024-03-13T10:12:05.787Z,88.33
2024-03-13T10:17:13.537Z,88.39
2024-03-13T10:22:15.252Z,88.29
2024-03-13T10:27:17.392Z,88.18
2024-03-13T10:32:19.794Z,88.21
2024-03-13T10:37:23.215Z,88.30
2024-03-13T10:42:24.832Z,88.31
2024-03-13T10:47:28.484Z,88.26
2024-03-13T10:52:30.085Z,88.31
2024-03-13T10:57:32.051Z,88.08
2024-03-13T11:02:34.750Z,87.89
2024-03-13T11:07:36.274Z,87.90
2024-03-13T11:12:45.956Z,87.86
2024-03-13T11:17:57.406Z,87.98
2024-03-13T11:23:11.624Z,87.96
2024-03-13T11:28:32.538Z,87.91
2024-03-13T11:33:35.821Z,87.73
2024-03-13T11:38:39.431Z,87.78
2024-03-13T11:43:41.821Z,87.79
2024-03-13T11:48:43.560Z,87.88
2024-03-13T11:53:45.830Z,87.90
2024-03-13T11:58:48.293Z,87.78
2024-03-13T12:03:54.455Z,87.69
2024-03-13T12:08:56.998Z,87.83
2024-03-13T12:14:00.265Z,87.69
2024-03-13T12:19:03.016Z,87.63
2024-03-13T12:24:05.084Z,87.33
2024-03-13T12:29:06.806Z,87.66
2024-03-13T12:34:10.743Z,87.57
2024-03-13T12:39:12.966Z,86.03
2024-03-13T12:44:16.039Z,86.60
2024-03-13T12:49:17.746Z,87.05
2024-03-13T12:54:19.420Z,86.24
2024-03-13T12:59:23.910Z,86.22
2024-03-13T13:04:25.745Z,86.65
2024-03-13T13:09:27.585Z,86.19
2024-03-13T13:14:30.689Z,85.86
2024-03-13T13:20:07.286Z,85.21
2024-03-13T13:25:09.292Z,84.71
2024-03-13T13:30:13.914Z,84.71
2024-03-13T13:35:21.277Z,85.11
2024-03-13T13:40:24.241Z,84.89
2024-03-13T13:45:28.088Z,84.62
2024-03-13T13:50:29.792Z,84.99
2024-03-13T13:55:31.734Z,85.09
2024-03-13T14:00:33.460Z,85.04
2024-03-13T14:05:35.803Z,85.04
2024-03-13T14:11:05.850Z,84.74
2024-03-13T14:16:10.058Z,84.82
2024-03-13T14:21:17.378Z,84.67
2024-03-13T14:26:29.403Z,84.32
2024-03-13T14:32:36.972Z,84.68
2024-03-13T14:37:15.642Z,84.32
2024-03-13T14:42:28.305Z,84.33
2024-03-13T14:47:42.046Z,84.26
2024-03-13T14:52:54.505Z,84.18
2024-03-13T14:58:05.020Z,83.93
2024-03-13T15:03:07.380Z,84.32
2024-03-13T15:08:14.761Z,84.25
2024-03-13T15:13:16.528Z,84.43
2024-03-13T15:18:18.458Z,84.14
2024-03-13T15:23:20.223Z,84.21
2024-03-13T15:28:21.895Z,84.21
2024-03-13T15:33:23.608Z,84.55
2024-03-13T15:38:25.262Z,84.50
2024-03-13T15:43:26.820Z,84.60
2024-03-13T15:48:28.486Z,84.74
2024-03-13T15:53:30.879Z,84.79
2024-03-13T15:58:33.098Z,84.79
2024-03-13T16:03:34.775Z,84.83
2024-03-13T16:08:50.543Z,84.99
2024-03-13T16:13:54.052Z,85.03
2024-03-13T16:18:56.751Z,85.14
2024-03-13T16:23:58.960Z,85.28
2024-03-13T16:29:00.818Z,85.29
2024-03-13T16:34:03.380Z,85.36
2024-03-13T16:39:07.809Z,85.31
2024-03-13T16:44:09.630Z,85.39
2024-03-13T16:49:12.562Z,85.50
2024-03-13T16:54:14.297Z,85.54
2024-03-13T16:59:16.032Z,85.57
2024-03-13T17:04:17.685Z,85.59
2024-03-13T17:09:19.451Z,85.61
2024-03-13T17:14:23.316Z,85.71
2024-03-13T17:19:26.441Z,85.74
2024-03-13T17:24:28.290Z,85.89
2024-03-13T17:29:33.318Z,86.00
2024-03-13T17:34:35.479Z,86.17
2024-03-13T17:39:38.085Z,86.29
2024-03-13T17:44:41.094Z,86.21
2024-03-13T17:49:45.075Z,86.32
2024-03-13T17:54:46.864Z,86.39
2024-03-13T17:59:48.815Z,86.43
2024-03-13T18:04:50.590Z,86.51
2024-03-13T18:09:52.103Z,86.46
2024-03-13T18:14:54.938Z,86.74
2024-03-13T18:19:56.668Z,86.78
2024-03-13T18:24:58.484Z,86.57
2024-03-13T18:30:04.953Z,86.54
2024-03-13T18:35:10.281Z,86.57
2024-03-13T18:40:16.015Z,86.51
2024-03-13T18:45:17.520Z,86.50
2024-03-13T18:50:19.201Z,86.40
2024-03-13T18:55:23.476Z,86.36
2024-03-13T19:00:27.415Z,86.46
2024-03-13T19:05:29.173Z,86.41
2024-03-13T19:10:31.581Z,86.23
2024-03-13T19:15:35.177Z,86.25
2024-03-13T19:20:38.643Z,86.38
2024-03-13T19:25:40.159Z,86.49
2024-03-13T19:30:42.572Z,86.55
2024-03-13T19:35:45.791Z,86.59
2024-03-13T19:40:47.339Z,86.68
2024-03-13T19:45:49.112Z,86.77
2024-03-13T19:50:50.689Z,86.85
2024-03-13T19:55:52.261Z,86.83
2024-03-13T20:00:54.143Z,86.96
2024-03-13T20:05:56.439Z,87.04
2024-03-13T20:11:00.763Z,87.00
2024-03-13T20:16:02.989Z,87.09
2024-03-13T20:21:04.941Z,87.15
2024-03-13T20:26:06.551Z,87.35
2024-03-13T20:31:08.060Z,87.19
2024-03-13T20:36:10.605Z,87.26
2024-03-13T20:41:12.320Z,87.24
2024-03-13T20:46:14.058Z,87.24
2024-03-13T20:51:15.866Z,87.22
2024-03-13T20:56:17.478Z,87.36
2024-03-13T21:01:20.300Z,87.40
2024-03-13T21:06:21.895Z,87.46
2024-03-13T21:11:23.661Z,87.42
2024-03-13T21:16:25.455Z,87.39
2024-03-13T21:21:27.072Z,87.50
2024-03-13T21:26:28.799Z,87.60
2024-03-13T21:31:31.013Z,87.63
2024-03-13T21:36:33.560Z,87.62
2024-03-13T21:41:37.385Z,87.60
2024-03-13T21:46:38.913Z,87.63
2024-03-13T21:51:40.946Z,87.61
2024-03-13T21:56:42.771Z,87.60
2024-03-13T22:01:44.652Z,87.55
2024-03-13T22:06:46.151Z,87.57
2024-03-13T22:11:47.794Z,87.61
2024-03-13T22:16:50.922Z,87.61
2024-03-13T22:21:53.119Z,87.59
2024-03-13T22:26:54.682Z,87.68
2024-03-13T22:31:56.230Z,87.72
2024-03-13T22:36:58.896Z,87.72
2024-03-13T22:42:00.522Z,87.71
2024-03-13T22:47:05.891Z,87.85
2024-03-13T22:52:07.477Z,87.94
2024-03-13T22:57:09.030Z,87.82
2024-03-13T23:02:10.634Z,87.95
2024-03-13T23:07:14.179Z,87.96
2024-03-13T23:12:15.796Z,87.90
2024-03-13T23:17:17.351Z,87.93
2024-03-13T23:22:19.451Z,87.94
2024-03-13T23:27:21.422Z,88.00
2024-03-13T23:32:23.876Z,88.07
2024-03-13T23:37:25.862Z,88.15
2024-03-13T23:42:41.850Z,88.21
2024-03-13T23:47:45.491Z,88.13
2024-03-13T23:52:47.115Z,88.09
2024-03-13T23:57:49.805Z,88.02
